sensor_id;sensor_type;location;lat;lon;timestamp;pressure;altitude;pressure_sealevel;temperature;humidity
40574;BME280;26283;49.020;8.644;2022-08-20T00:00:38;99158.41;;;26.80;45.77
40574;BME280;26283;49.020;8.644;2022-08-20T00:03:25;99152.88;;;26.80;45.73
40574;BME280;26283;49.020;8.644;2022-08-20T00:05:57;99158.41;;;26.80;45.73
40574;BME280;26283;49.020;8.644;2022-08-20T00:08:24;99154.00;;;26.79;45.74
40574;BME280;26283;49.020;8.644;2022-08-20T00:10:50;99155.97;;;26.78;45.77
40574;BME280;26283;49.020;8.644;2022-08-20T00:13:21;99157.91;;;26.78;45.79
40574;BME280;26283;49.020;8.644;2022-08-20T00:15:47;99157.09;;;26.77;45.73
40574;BME280;26283;49.020;8.644;2022-08-20T00:18:13;99159.88;;;26.77;45.84
40574;BME280;26283;49.020;8.644;2022-08-20T00:20:42;99157.44;;;26.76;45.86
40574;BME280;26283;49.020;8.644;2022-08-20T00:23:08;99159.38;;;26.75;45.86
40574;BME280;26283;49.020;8.644;2022-08-20T00:25:34;99153.84;;;26.75;45.93
40574;BME280;26283;49.020;8.644;2022-08-20T00:27:59;99156.94;;;26.74;45.95
40574;BME280;26283;49.020;8.644;2022-08-20T00:30:28;99156.94;;;26.74;45.98
40574;BME280;26283;49.020;8.644;2022-08-20T00:32:57;99156.94;;;26.74;45.92
40574;BME280;26283;49.020;8.644;2022-08-20T00:35:25;99159.22;;;26.72;45.96
40574;BME280;26283;49.020;8.644;2022-08-20T00:37:51;99160.34;;;26.71;46.02
40574;BME280;26283;49.020;8.644;2022-08-20T00:40:20;99166.38;;;26.73;46.11
40574;BME280;26283;49.020;8.644;2022-08-20T00:42:51;99157.59;;;26.71;46.12
40574;BME280;26283;49.020;8.644;2022-08-20T00:45:18;99162.63;;;26.69;46.16
40574;BME280;26283;49.020;8.644;2022-08-20T00:47:44;99173.38;;;26.70;46.21
40574;BME280;26283;49.020;8.644;2022-08-20T00:50:12;99168.97;;;26.69;46.20
40574;BME280;26283;49.020;8.644;2022-08-20T00:52:40;99167.69;;;26.67;46.19
40574;BME280;26283;49.020;8.644;2022-08-20T00:55:07;99172.41;;;26.66;46.20
40574;BME280;26283;49.020;8.644;2022-08-20T00:57:38;99173.19;;;26.67;46.21
40574;BME280;26283;49.020;8.644;2022-08-20T01:00:08;99182.62;;;26.66;46.13
40574;BME280;26283;49.020;8.644;2022-08-20T01:02:35;99190.94;;;26.66;46.23
40574;BME280;26283;49.020;8.644;2022-08-20T01:05:02;99188.16;;;26.66;46.31
40574;BME280;26283;49.020;8.644;2022-08-20T01:07:28;99192.06;;;26.64;46.39
40574;BME280;26283;49.020;8.644;2022-08-20T01:09:59;99194.38;;;26.62;46.42
40574;BME280;26283;49.020;8.644;2022-08-20T01:12:28;99182.50;;;26.62;46.48
40574;BME280;26283;49.020;8.644;2022-08-20T01:14:54;99180.06;;;26.60;46.50
40574;BME280;26283;49.020;8.644;2022-08-20T01:17:24;99182.81;;;26.60;46.56
40574;BME280;26283;49.020;8.644;2022-08-20T01:19:58;99183.63;;;26.61;46.61
40574;BME280;26283;49.020;8.644;2022-08-20T01:22:36;99189.50;;;26.59;46.65
40574;BME280;26283;49.020;8.644;2022-08-20T01:25:49;99193.41;;;26.58;46.60
40574;BME280;26283;49.020;8.644;2022-08-20T01:28:21;99187.38;;;26.56;46.65
40574;BME280;26283;49.020;8.644;2022-08-20T01:30:48;99184.63;;;26.56;46.76
40574;BME280;26283;49.020;8.644;2022-08-20T01:33:13;99182.19;;;26.55;46.83
40574;BME280;26283;49.020;8.644;2022-08-20T01:35:41;99178.09;;;26.52;46.85
40574;BME280;26283;49.020;8.644;2022-08-20T01:38:07;99180.53;;;26.54;46.83
40574;BME280;26283;49.020;8.644;2022-08-20T01:43:20;99183.63;;;26.52;46.80
40574;BME280;26283;49.020;8.644;2022-08-20T01:45:47;99190.28;;;26.51;46.94
40574;BME280;26283;49.020;8.644;2022-08-20T01:48:14;99194.19;;;26.50;46.99
40574;BME280;26283;49.020;8.644;2022-08-20T01:50:44;99185.91;;;26.50;46.92
40574;BME280;26283;49.020;8.644;2022-08-20T01:53:23;99192.56;;;26.49;46.86
40574;BME280;26283;49.020;8.644;2022-08-20T01:55:49;99195.34;;;26.49;46.89
40574;BME280;26283;49.020;8.644;2022-08-20T01:58:15;99195.66;;;26.48;46.93
40574;BME280;26283;49.020;8.644;2022-08-20T02:00:41;99210.28;;;26.48;46.95
40574;BME280;26283;49.020;8.644;2022-08-20T02:03:06;99208.97;;;26.46;46.95
40574;BME280;26283;49.020;8.644;2022-08-20T02:05:33;99208.16;;;26.45;46.95
40574;BME280;26283;49.020;8.644;2022-08-20T02:07:59;99196.47;;;26.48;46.27
40574;BME280;26283;49.020;8.644;2022-08-20T02:10:26;99193.72;;;26.48;45.91
40574;BME280;26283;49.020;8.644;2022-08-20T02:12:52;99195.00;;;26.42;46.11
40574;BME280;26283;49.020;8.644;2022-08-20T02:15:17;99201.03;;;26.36;46.55
40574;BME280;26283;49.020;8.644;2022-08-20T02:17:43;99202.31;;;26.29;46.91
40574;BME280;26283;49.020;8.644;2022-08-20T02:20:17;99208.28;;;26.23;47.17
40574;BME280;26283;49.020;8.644;2022-08-20T02:22:53;99205.22;;;26.16;47.41
40574;BME280;26283;49.020;8.644;2022-08-20T02:25:21;99210.06;;;26.10;47.58
40574;BME280;26283;49.020;8.644;2022-08-20T02:27:48;99211.03;;;26.06;47.86
40574;BME280;26283;49.020;8.644;2022-08-20T02:30:19;99213.63;;;26.02;47.98
40574;BME280;26283;49.020;8.644;2022-08-20T02:32:45;99205.16;;;25.99;48.15
40574;BME280;26283;49.020;8.644;2022-08-20T02:35:11;99211.84;;;25.98;48.42
40574;BME280;26283;49.020;8.644;2022-08-20T02:37:39;99210.53;;;25.95;48.33
40574;BME280;26283;49.020;8.644;2022-08-20T02:40:08;99210.84;;;25.93;48.46
40574;BME280;26283;49.020;8.644;2022-08-20T02:42:34;99211.50;;;25.90;48.64
40574;BME280;26283;49.020;8.644;2022-08-20T02:45:00;99209.03;;;25.89;48.57
40574;BME280;26283;49.020;8.644;2022-08-20T02:47:25;99197.50;;;25.87;48.70
40574;BME280;26283;49.020;8.644;2022-08-20T02:49:53;99196.69;;;25.86;48.70
40574;BME280;26283;49.020;8.644;2022-08-20T02:52:19;99204.97;;;25.86;48.84
40574;BME280;26283;49.020;8.644;2022-08-20T02:54:44;99207.25;;;25.84;48.81
40574;BME280;26283;49.020;8.644;2022-08-20T02:57:14;99217.47;;;25.84;48.74
40574;BME280;26283;49.020;8.644;2022-08-20T02:59:40;99205.63;;;25.83;48.81
40574;BME280;26283;49.020;8.644;2022-08-20T03:02:05;99203.16;;;25.82;49.10
40574;BME280;26283;49.020;8.644;2022-08-20T03:04:30;99197.97;;;25.80;49.06
40574;BME280;26283;49.020;8.644;2022-08-20T03:06:57;99193.56;;;25.79;49.03
40574;BME280;26283;49.020;8.644;2022-08-20T03:09:23;99192.75;;;25.79;49.05
40574;BME280;26283;49.020;8.644;2022-08-20T03:11:49;99192.75;;;25.79;49.09
40574;BME280;26283;49.020;8.644;2022-08-20T03:14:15;99189.19;;;25.78;49.13
40574;BME280;26283;49.020;8.644;2022-08-20T03:16:41;99189.50;;;25.77;49.28
40574;BME280;26283;49.020;8.644;2022-08-20T03:19:07;99194.25;;;25.76;49.17
40574;BME280;26283;49.020;8.644;2022-08-20T03:21:32;99193.44;;;25.76;49.31
40574;BME280;26283;49.020;8.644;2022-08-20T03:23:59;99197.31;;;25.75;49.53
40574;BME280;26283;49.020;8.644;2022-08-20T03:26:24;99200.41;;;25.73;49.47
40574;BME280;26283;49.020;8.644;2022-08-20T03:28:50;99203.16;;;25.73;49.52
40574;BME280;26283;49.020;8.644;2022-08-20T03:31:15;99197.16;;;25.71;49.71
40574;BME280;26283;49.020;8.644;2022-08-20T03:33:41;99194.38;;;25.71;49.63
40574;BME280;26283;49.020;8.644;2022-08-20T03:36:06;99194.72;;;25.70;49.55
40574;BME280;26283;49.020;8.644;2022-08-20T03:38:32;99192.75;;;25.70;49.73
40574;BME280;26283;49.020;8.644;2022-08-20T03:40:58;99194.72;;;25.70;49.76
40574;BME280;26283;49.020;8.644;2022-08-20T03:43:23;99197.78;;;25.68;49.78
40574;BME280;26283;49.020;8.644;2022-08-20T03:45:49;99198.59;;;25.69;49.73
40574;BME280;26283;49.020;8.644;2022-08-20T03:48:18;99196.97;;;25.68;49.82
40574;BME280;26283;49.020;8.644;2022-08-20T03:50:45;99199.22;;;25.66;49.68
40574;BME280;26283;49.020;8.644;2022-08-20T03:53:12;99198.09;;;25.67;49.74
40574;BME280;26283;49.020;8.644;2022-08-20T03:55:39;99195.66;;;25.65;49.90
40574;BME280;26283;49.020;8.644;2022-08-20T03:58:07;99198.41;;;25.65;49.86
40574;BME280;26283;49.020;8.644;2022-08-20T04:00:42;99191.28;;;25.64;50.08
40574;BME280;26283;49.020;8.644;2022-08-20T04:03:09;99201.19;;;25.65;50.10
40574;BME280;26283;49.020;8.644;2022-08-20T04:05:36;99195.16;;;25.63;50.03
40574;BME280;26283;49.020;8.644;2022-08-20T04:08:17;99197.09;;;25.62;50.01
40574;BME280;26283;49.020;8.644;2022-08-20T04:10:45;99191.59;;;25.62;50.15
40574;BME280;26283;49.020;8.644;2022-08-20T04:13:11;99197.41;;;25.61;50.04
40574;BME280;26283;49.020;8.644;2022-08-20T04:15:37;99205.66;;;25.61;50.12
40574;BME280;26283;49.020;8.644;2022-08-20T04:18:05;99203.22;;;25.59;50.13
40574;BME280;26283;49.020;8.644;2022-08-20T04:20:33;99201.59;;;25.58;50.36
40574;BME280;26283;49.020;8.644;2022-08-20T04:22:59;99206.00;;;25.59;50.52
40574;BME280;26283;49.020;8.644;2022-08-20T04:25:24;99203.53;;;25.58;50.80
40574;BME280;26283;49.020;8.644;2022-08-20T04:27:50;99208.25;;;25.57;50.83
40574;BME280;26283;49.020;8.644;2022-08-20T04:30:17;99203.88;;;25.56;50.85
40574;BME280;26283;49.020;8.644;2022-08-20T04:32:44;99203.88;;;25.56;50.82
40574;BME280;26283;49.020;8.644;2022-08-20T04:35:12;99207.75;;;25.55;50.86
40574;BME280;26283;49.020;8.644;2022-08-20T04:37:41;99211.31;;;25.56;50.73
40574;BME280;26283;49.020;8.644;2022-08-20T04:40:10;99202.91;;;25.52;50.67
40574;BME280;26283;49.020;8.644;2022-08-20T04:42:55;99212.81;;;25.53;50.68
40574;BME280;26283;49.020;8.644;2022-08-20T04:45:21;99209.22;;;25.53;50.80
40574;BME280;26283;49.020;8.644;2022-08-20T04:47:48;99212.31;;;25.51;50.63
40574;BME280;26283;49.020;8.644;2022-08-20T04:50:13;99214.25;;;25.51;50.73
40574;BME280;26283;49.020;8.644;2022-08-20T04:52:39;99222.53;;;25.51;50.85
40574;BME280;26283;49.020;8.644;2022-08-20T04:55:05;99212.62;;;25.50;50.82
40574;BME280;26283;49.020;8.644;2022-08-20T04:57:32;99218.16;;;25.50;50.76
40574;BME280;26283;49.020;8.644;2022-08-20T04:59:58;99218.16;;;25.50;51.18
40574;BME280;26283;49.020;8.644;2022-08-20T05:02:24;99216.50;;;25.49;50.85
40574;BME280;26283;49.020;8.644;2022-08-20T05:04:49;99225.09;;;25.47;50.81
40574;BME280;26283;49.020;8.644;2022-08-20T05:07:16;99221.84;;;25.45;51.15
40574;BME280;26283;49.020;8.644;2022-08-20T05:09:43;99218.78;;;25.47;50.93
40574;BME280;26283;49.020;8.644;2022-08-20T05:12:08;99221.53;;;25.47;50.99
40574;BME280;26283;49.020;8.644;2022-08-20T05:14:34;99219.91;;;25.46;51.11
40574;BME280;26283;49.020;8.644;2022-08-20T05:17:04;99221.84;;;25.45;51.12
40574;BME280;26283;49.020;8.644;2022-08-20T05:19:31;99226.56;;;25.45;51.34
40574;BME280;26283;49.020;8.644;2022-08-20T05:21:57;99225.72;;;25.44;51.32
40574;BME280;26283;49.020;8.644;2022-08-20T05:24:23;99236.78;;;25.44;51.38
40574;BME280;26283;49.020;8.644;2022-08-20T05:26:48;99235.97;;;25.44;51.60
40574;BME280;26283;49.020;8.644;2022-08-20T05:29:14;99241.47;;;25.44;51.39
40574;BME280;26283;49.020;8.644;2022-08-20T05:31:40;99243.72;;;25.42;51.79
40574;BME280;26283;49.020;8.644;2022-08-20T05:34:08;99244.56;;;25.42;51.58
40574;BME280;26283;49.020;8.644;2022-08-20T05:36:35;99242.91;;;25.41;51.35
40574;BME280;26283;49.020;8.644;2022-08-20T05:39:00;99244.06;;;25.40;51.44
40574;BME280;26283;49.020;8.644;2022-08-20T05:41:26;99249.56;;;25.40;51.35
40574;BME280;26283;49.020;8.644;2022-08-20T05:43:57;99260.59;;;25.40;51.48
40574;BME280;26283;49.020;8.644;2022-08-20T05:46:25;99256.22;;;25.39;51.13
40574;BME280;26283;49.020;8.644;2022-08-20T05:48:50;99258.16;;;25.39;51.12
40574;BME280;26283;49.020;8.644;2022-08-20T05:51:16;99259.28;;;25.38;51.23
40574;BME280;26283;49.020;8.644;2022-08-20T05:53:41;99264.00;;;25.37;51.30
40574;BME280;26283;49.020;8.644;2022-08-20T05:56:08;99263.16;;;25.37;51.36
40574;BME280;26283;49.020;8.644;2022-08-20T05:58:35;99264.00;;;25.37;51.35
40574;BME280;26283;49.020;8.644;2022-08-20T06:01:01;99265.94;;;25.37;51.36
40574;BME280;26283;49.020;8.644;2022-08-20T06:03:26;99267.06;;;25.36;51.57
40574;BME280;26283;49.020;8.644;2022-08-20T06:06:10;99267.88;;;25.36;51.68
40574;BME280;26283;49.020;8.644;2022-08-20T06:08:36;99254.41;;;25.35;52.61
40574;BME280;26283;49.020;8.644;2022-08-20T06:11:02;99244.19;;;25.35;52.84
40574;BME280;26283;49.020;8.644;2022-08-20T06:13:28;99245.81;;;25.36;52.87
40574;BME280;26283;49.020;8.644;2022-08-20T06:15:55;99238.66;;;25.35;52.29
40574;BME280;26283;49.020;8.644;2022-08-20T06:18:21;99243.88;;;25.37;52.89
40574;BME280;26283;49.020;8.644;2022-08-20T06:20:47;99248.25;;;25.38;53.57
40574;BME280;26283;49.020;8.644;2022-08-20T06:23:12;99246.00;;;25.40;52.54
40574;BME280;26283;49.020;8.644;2022-08-20T06:25:38;99248.75;;;25.40;52.91
40574;BME280;26283;49.020;8.644;2022-08-20T06:28:04;99252.00;;;25.42;52.69
40574;BME280;26283;49.020;8.644;2022-08-20T06:30:30;99243.72;;;25.42;52.48
40574;BME280;26283;49.020;8.644;2022-08-20T06:32:56;99245.38;;;25.43;52.57
40574;BME280;26283;49.020;8.644;2022-08-20T06:35:22;99251.69;;;25.43;52.11
40574;BME280;26283;49.020;8.644;2022-08-20T06:37:48;99271.81;;;25.44;51.97
40574;BME280;26283;49.020;8.644;2022-08-20T06:40:17;99274.56;;;25.44;52.25
40574;BME280;26283;49.020;8.644;2022-08-20T06:42:44;99277.03;;;25.45;51.90
40574;BME280;26283;49.020;8.644;2022-08-20T06:45:12;99283.84;;;25.48;51.87
40574;BME280;26283;49.020;8.644;2022-08-20T06:47:39;99286.00;;;25.51;51.75
40574;BME280;26283;49.020;8.644;2022-08-20T06:50:08;99289.25;;;25.53;51.60
40574;BME280;26283;49.020;8.644;2022-08-20T06:52:34;99286.97;;;25.55;51.77
40574;BME280;26283;49.020;8.644;2022-08-20T06:54:59;99286.97;;;25.55;51.74
40574;BME280;26283;49.020;8.644;2022-08-20T06:57:25;99296.56;;;25.57;51.61
40574;BME280;26283;49.020;8.644;2022-08-20T06:59:53;99285.19;;;25.59;51.57
40574;BME280;26283;49.020;8.644;2022-08-20T07:02:19;99288.78;;;25.59;51.48
40574;BME280;26283;49.020;8.644;2022-08-20T07:04:44;99291.22;;;25.61;51.49
40574;BME280;26283;49.020;8.644;2022-08-20T07:07:17;99291.75;;;25.63;51.58
40574;BME280;26283;49.020;8.644;2022-08-20T07:09:43;99294.50;;;25.63;51.47
40574;BME280;26283;49.020;8.644;2022-08-20T07:12:09;99287.88;;;25.64;51.39
40574;BME280;26283;49.020;8.644;2022-08-20T07:14:35;99289.50;;;25.65;51.49
40574;BME280;26283;49.020;8.644;2022-08-20T07:17:05;99293.06;;;25.66;51.48
40574;BME280;26283;49.020;8.644;2022-08-20T07:19:31;99291.13;;;25.66;51.48
40574;BME280;26283;49.020;8.644;2022-08-20T07:21:57;99290.00;;;25.67;51.42
40574;BME280;26283;49.020;8.644;2022-08-20T07:24:22;99293.56;;;25.68;51.49
40574;BME280;26283;49.020;8.644;2022-08-20T07:26:48;99294.38;;;25.68;51.42
40574;BME280;26283;49.020;8.644;2022-08-20T07:29:17;99297.13;;;25.68;51.30
40574;BME280;26283;49.020;8.644;2022-08-20T07:31:42;99293.56;;;25.68;51.19
40574;BME280;26283;49.020;8.644;2022-08-20T07:34:26;99293.56;;;25.68;51.04
40574;BME280;26283;49.020;8.644;2022-08-20T07:36:51;99298.28;;;25.67;50.92
40574;BME280;26283;49.020;8.644;2022-08-20T07:39:16;99306.56;;;25.67;50.87
40574;BME280;26283;49.020;8.644;2022-08-20T07:41:42;99307.69;;;25.66;50.74
40574;BME280;26283;49.020;8.644;2022-08-20T07:44:07;99307.69;;;25.66;50.69
40574;BME280;26283;49.020;8.644;2022-08-20T07:46:33;99314.00;;;25.67;50.79
40574;BME280;26283;49.020;8.644;2022-08-20T07:48:58;99317.09;;;25.65;50.71
40574;BME280;26283;49.020;8.644;2022-08-20T07:51:24;99316.78;;;25.67;50.77
40574;BME280;26283;49.020;8.644;2022-08-20T07:53:50;99317.91;;;25.66;50.70
40574;BME280;26283;49.020;8.644;2022-08-20T07:56:18;99310.44;;;25.66;50.75
40574;BME280;26283;49.020;8.644;2022-08-20T07:58:47;99322.28;;;25.67;50.85
40574;BME280;26283;49.020;8.644;2022-08-20T08:01:16;99323.09;;;25.67;50.75
40574;BME280;26283;49.020;8.644;2022-08-20T08:03:42;99324.75;;;25.68;50.79
40574;BME280;26283;49.020;8.644;2022-08-20T08:06:08;99323.94;;;25.68;50.68
40574;BME280;26283;49.020;8.644;2022-08-20T08:08:34;99327.50;;;25.68;50.65
40574;BME280;26283;49.020;8.644;2022-08-20T08:11:01;99324.75;;;25.68;50.68
40574;BME280;26283;49.020;8.644;2022-08-20T08:13:30;99330.25;;;25.68;50.63
40574;BME280;26283;49.020;8.644;2022-08-20T08:15:58;99329.94;;;25.70;50.63
40574;BME280;26283;49.020;8.644;2022-08-20T08:18:32;99334.66;;;25.69;50.71
40574;BME280;26283;49.020;8.644;2022-08-20T08:20:59;99331.06;;;25.69;50.63
40574;BME280;26283;49.020;8.644;2022-08-20T08:23:24;99328.00;;;25.70;50.81
40574;BME280;26283;49.020;8.644;2022-08-20T08:25:50;99328.81;;;25.71;50.74
40574;BME280;26283;49.020;8.644;2022-08-20T08:28:17;99334.34;;;25.71;50.78
40574;BME280;26283;49.020;8.644;2022-08-20T08:30:44;99340.66;;;25.71;51.06
40574;BME280;26283;49.020;8.644;2022-08-20T08:33:28;99335.97;;;25.72;50.97
40574;BME280;26283;49.020;8.644;2022-08-20T08:35:59;99335.16;;;25.71;51.25
40574;BME280;26283;49.020;8.644;2022-08-20T08:38:28;99331.25;;;25.72;51.07
40574;BME280;26283;49.020;8.644;2022-08-20T08:40:55;99335.16;;;25.71;50.95
40574;BME280;26283;49.020;8.644;2022-08-20T08:43:24;99336.78;;;25.72;51.22
40574;BME280;26283;49.020;8.644;2022-08-20T08:46:02;99338.72;;;25.72;51.02
40574;BME280;26283;49.020;8.644;2022-08-20T08:48:32;99336.78;;;25.72;51.31
40574;BME280;26283;49.020;8.644;2022-08-20T08:50:59;99338.72;;;25.72;50.83
40574;BME280;26283;49.020;8.644;2022-08-20T08:53:31;99342.31;;;25.72;50.88
40574;BME280;26283;49.020;8.644;2022-08-20T08:55:59;99338.41;;;25.73;51.19
40574;BME280;26283;49.020;8.644;2022-08-20T08:58:25;99341.16;;;25.73;51.02
40574;BME280;26283;49.020;8.644;2022-08-20T09:00:52;99338.41;;;25.73;51.07
40574;BME280;26283;49.020;8.644;2022-08-20T09:03:27;99343.94;;;25.73;50.90
40574;BME280;26283;49.020;8.644;2022-08-20T09:05:56;99346.69;;;25.73;50.99
40574;BME280;26283;49.020;8.644;2022-08-20T09:08:31;99343.13;;;25.73;50.87
40574;BME280;26283;49.020;8.644;2022-08-20T09:11:05;99353.84;;;25.74;50.90
40574;BME280;26283;49.020;8.644;2022-08-20T09:13:32;99354.16;;;25.73;51.14
40574;BME280;26283;49.020;8.644;2022-08-20T09:15:58;99350.59;;;25.72;50.91
40574;BME280;26283;49.020;8.644;2022-08-20T09:18:23;99347.00;;;25.72;50.93
40574;BME280;26283;49.020;8.644;2022-08-20T09:20:49;99352.22;;;25.73;50.94
40574;BME280;26283;49.020;8.644;2022-08-20T09:23:14;99352.53;;;25.72;51.00
40574;BME280;26283;49.020;8.644;2022-08-20T09:25:39;99354.16;;;25.73;50.81
40574;BME280;26283;49.020;8.644;2022-08-20T09:28:05;99354.16;;;25.73;50.78
40574;BME280;26283;49.020;8.644;2022-08-20T09:30:30;99352.22;;;25.73;50.87
40574;BME280;26283;49.020;8.644;2022-08-20T09:32:58;99349.44;;;25.73;50.93
40574;BME280;26283;49.020;8.644;2022-08-20T09:35:23;99347.81;;;25.72;50.73
40574;BME280;26283;49.020;8.644;2022-08-20T09:37:49;99349.44;;;25.73;50.79
40574;BME280;26283;49.020;8.644;2022-08-20T09:40:16;99354.97;;;25.73;50.65
40574;BME280;26283;49.020;8.644;2022-08-20T09:42:41;99354.97;;;25.73;50.64
40574;BME280;26283;49.020;8.644;2022-08-20T09:45:07;99350.59;;;25.72;50.90
40574;BME280;26283;49.020;8.644;2022-08-20T09:47:33;99350.59;;;25.72;50.94
40574;BME280;26283;49.020;8.644;2022-08-20T09:49:58;99346.69;;;25.73;50.87
40574;BME280;26283;49.020;8.644;2022-08-20T09:54:54;99346.69;;;25.73;50.89
40574;BME280;26283;49.020;8.644;2022-08-20T09:57:21;99350.59;;;25.72;51.17
40574;BME280;26283;49.020;8.644;2022-08-20T09:59:55;99353.34;;;25.72;50.67
40574;BME280;26283;49.020;8.644;2022-08-20T10:02:23;99343.13;;;25.73;50.80
40574;BME280;26283;49.020;8.644;2022-08-20T10:04:49;99349.44;;;25.73;50.78
40574;BME280;26283;49.020;8.644;2022-08-20T10:07:15;99351.41;;;25.73;50.99
40574;BME280;26283;49.020;8.644;2022-08-20T10:09:40;99347.81;;;25.72;50.86
40574;BME280;26283;49.020;8.644;2022-08-20T10:12:06;99341.47;;;25.72;50.69
40574;BME280;26283;49.020;8.644;2022-08-20T10:14:32;99338.72;;;25.72;50.77
40574;BME280;26283;49.020;8.644;2022-08-20T10:16:59;99335.97;;;25.72;50.84
40574;BME280;26283;49.020;8.644;2022-08-20T10:19:25;99337.59;;;25.73;50.92
40574;BME280;26283;49.020;8.644;2022-08-20T10:21:52;99331.25;;;25.72;50.93
40574;BME280;26283;49.020;8.644;2022-08-20T10:24:19;99330.44;;;25.72;50.86
40574;BME280;26283;49.020;8.644;2022-08-20T10:26:45;99334.03;;;25.72;50.85
40574;BME280;26283;49.020;8.644;2022-08-20T10:29:12;99331.25;;;25.72;51.07
40574;BME280;26283;49.020;8.644;2022-08-20T10:31:37;99324.09;;;25.71;51.03
40574;BME280;26283;49.020;8.644;2022-08-20T10:34:03;99319.41;;;25.72;51.00
40574;BME280;26283;49.020;8.644;2022-08-20T10:36:28;99325.75;;;25.72;51.14
40574;BME280;26283;49.020;8.644;2022-08-20T10:38:53;99309.19;;;25.72;50.85
40574;BME280;26283;49.020;8.644;2022-08-20T10:41:19;99304.47;;;25.73;51.04
40574;BME280;26283;49.020;8.644;2022-08-20T10:43:45;99306.41;;;25.72;51.07
40574;BME280;26283;49.020;8.644;2022-08-20T10:46:11;99300.91;;;25.72;51.07
40574;BME280;26283;49.020;8.644;2022-08-20T10:48:36;99292.63;;;25.72;51.02
40574;BME280;26283;49.020;8.644;2022-08-20T10:51:02;99296.50;;;25.71;50.60
40574;BME280;26283;49.020;8.644;2022-08-20T10:53:27;99299.78;;;25.73;50.71
40574;BME280;26283;49.020;8.644;2022-08-20T10:55:54;99298.94;;;25.73;50.48
40574;BME280;26283;49.020;8.644;2022-08-20T10:58:20;99287.09;;;25.72;51.01
40574;BME280;26283;49.020;8.644;2022-08-20T11:00:45;99297.00;;;25.73;51.14
40574;BME280;26283;49.020;8.644;2022-08-20T11:03:11;99290.66;;;25.73;50.78
40574;BME280;26283;49.020;8.644;2022-08-20T11:05:37;99295.88;;;25.74;50.62
40574;BME280;26283;49.020;8.644;2022-08-20T11:08:04;99293.13;;;25.74;50.62
40574;BME280;26283;49.020;8.644;2022-08-20T11:10:30;99294.25;;;25.73;50.59
40574;BME280;26283;49.020;8.644;2022-08-20T11:12:58;99293.13;;;25.74;50.46
40574;BME280;26283;49.020;8.644;2022-08-20T11:15:24;99295.88;;;25.74;50.53
40574;BME280;26283;49.020;8.644;2022-08-20T11:17:50;99295.88;;;25.74;50.33
40574;BME280;26283;49.020;8.644;2022-08-20T11:20:18;99292.00;;;25.75;50.38
40574;BME280;26283;49.020;8.644;2022-08-20T11:22:44;99282.06;;;25.74;50.31
40574;BME280;26283;49.020;8.644;2022-08-20T11:25:09;99288.41;;;25.75;50.21
40574;BME280;26283;49.020;8.644;2022-08-20T11:27:38;99286.47;;;25.75;50.35
40574;BME280;26283;49.020;8.644;2022-08-20T11:30:07;99290.84;;;25.76;50.46
40574;BME280;26283;49.020;8.644;2022-08-20T11:32:33;99292.81;;;25.76;50.32
40574;BME280;26283;49.020;8.644;2022-08-20T11:34:58;99301.91;;;25.76;50.23
40574;BME280;26283;49.020;8.644;2022-08-20T11:37:24;99299.13;;;25.76;49.96
40574;BME280;26283;49.020;8.644;2022-08-20T11:39:50;99307.87;;;25.78;50.09
40574;BME280;26283;49.020;8.644;2022-08-20T11:42:16;99296.03;;;25.78;50.41
40574;BME280;26283;49.020;8.644;2022-08-20T11:44:41;99291.31;;;25.78;50.25
40574;BME280;26283;49.020;8.644;2022-08-20T11:47:21;99300.41;;;25.79;50.48
40574;BME280;26283;49.020;8.644;2022-08-20T11:49:46;99291.31;;;25.78;50.55
40574;BME280;26283;49.020;8.644;2022-08-20T11:52:20;99294.91;;;25.79;50.51
40574;BME280;26283;49.020;8.644;2022-08-20T11:54:45;99299.59;;;25.78;50.46
40574;BME280;26283;49.020;8.644;2022-08-20T11:57:11;99307.56;;;25.80;50.51
40574;BME280;26283;49.020;8.644;2022-08-20T11:59:36;99302.06;;;25.80;50.24
40574;BME280;26283;49.020;8.644;2022-08-20T12:02:02;99302.88;;;25.80;50.32
40574;BME280;26283;49.020;8.644;2022-08-20T12:04:28;99296.22;;;25.81;49.97
40574;BME280;26283;49.020;8.644;2022-08-20T12:06:53;99301.41;;;25.83;50.04
40574;BME280;26283;49.020;8.644;2022-08-20T12:09:18;99295.09;;;25.82;49.87
40574;BME280;26283;49.020;8.644;2022-08-20T12:11:44;99301.09;;;25.84;49.64
40574;BME280;26283;49.020;8.644;2022-08-20T12:14:10;99301.09;;;25.84;49.74
40574;BME280;26283;49.020;8.644;2022-08-20T12:16:35;99301.91;;;25.85;49.81
40574;BME280;26283;49.020;8.644;2022-08-20T12:19:01;99291.69;;;25.85;49.47
40574;BME280;26283;49.020;8.644;2022-08-20T12:21:26;99288.94;;;25.85;49.41
40574;BME280;26283;49.020;8.644;2022-08-20T12:23:51;99287.81;;;25.86;49.36
40574;BME280;26283;49.020;8.644;2022-08-20T12:26:17;99286.66;;;25.87;49.48
40574;BME280;26283;49.020;8.644;2022-08-20T12:28:42;99287.47;;;25.88;49.41
40574;BME280;26283;49.020;8.644;2022-08-20T12:31:08;99284.72;;;25.88;49.29
40574;BME280;26283;49.020;8.644;2022-08-20T12:33:33;99288.28;;;25.88;49.06
40574;BME280;26283;49.020;8.644;2022-08-20T12:35:59;99284.41;;;25.89;49.24
40574;BME280;26283;49.020;8.644;2022-08-20T12:38:25;99279.69;;;25.90;49.13
40574;BME280;26283;49.020;8.644;2022-08-20T12:40:50;99276.94;;;25.90;49.11
40574;BME280;26283;49.020;8.644;2022-08-20T12:43:15;99274.16;;;25.90;48.98
40574;BME280;26283;49.020;8.644;2022-08-20T12:45:41;99274.66;;;25.92;48.74
40574;BME280;26283;49.020;8.644;2022-08-20T12:48:09;99276.31;;;25.93;48.61
40574;BME280;26283;49.020;8.644;2022-08-20T12:50:36;99271.28;;;25.95;48.46
40574;BME280;26283;49.020;8.644;2022-08-20T12:53:03;99279.56;;;25.95;48.09
40574;BME280;26283;49.020;8.644;2022-08-20T12:55:29;99271.28;;;25.95;48.03
40574;BME280;26283;49.020;8.644;2022-08-20T12:57:58;99273.72;;;25.97;47.58
40574;BME280;26283;49.020;8.644;2022-08-20T13:00:29;99275.34;;;25.98;46.41
40574;BME280;26283;49.020;8.644;2022-08-20T13:02:57;99278.94;;;25.98;47.67
40574;BME280;26283;49.020;8.644;2022-08-20T13:05:23;99262.00;;;26.00;47.69